Darstellungsparameter: Aktuell verwendete Einstellungen:
Skalierung der Graphiken ... ?
xyx+y,   Skalierungsfaktor:      Skalierung: Modus: x, Faktor: 1
Darstellungszeitraum ... ?
Vom - - bis: - -   Zeitraum: 30.08.2019 - 31.08.2019
Min/Max/Avg-Anzeige ... ?
Zeige MMA aktuell
Zeige MMA Monat
Zeige MMA alles
Zeige --A aktuell
Zeige --A Monat
Zeige --A alles
Keine MMA-Anzeige
MMA:
Keine MMA-Graphiken
MMA-Basis: 30.08.2019 - 31.08.2019
Quicknavigation für Darstellung... ?
Tage:      1T, 2T, 3T, 5T -1T -2T -3T -5T +1T +2T +3T +5T
Wochen: 1W, 2W, 3W -1W -2W -3W +1W +2W +3W
Monate: 1M, 3M, 6M -1M -3M -6M +1M +3M +6M
Jahre:    1J, 3J, 5J, 10J -1J -3J -5J -10J +1J +3J +5J +10J
Nutze für die Darstellung ... ?
Originaldaten oder Mittelwerte auf ...
Stundenbasis Tagesbasis Wochenbasis
Monatsbasis Jahresbasis      Datenbasis: Original-Daten
Darstellen als:
Statistik (Auto) Statistik J:M      Darstellung:
Zur Graphik,    zurück zur Übersicht aller Sensoren.
 
Tabellarische Datenbersicht: ?
 
Sensor: Nr:Datum:Temp:Feuchte:Taupunkt:
Aussen-T/F 1 30-08-2019 00:00:00 20.3 C 79 % 16.54 C
2 30-08-2019 00:05:00 20.4 C 79 % 16.64 C
3 30-08-2019 00:10:00 20.4 C 79 % 16.64 C
4 30-08-2019 00:15:00 20.4 C 79 % 16.64 C
5 30-08-2019 00:20:00 20.4 C 79 % 16.64 C
6 30-08-2019 00:25:00 20.4 C 78 % 16.44 C
7 30-08-2019 00:30:00 20.4 C 78 % 16.44 C
8 30-08-2019 00:35:00 20.4 C 79 % 16.64 C
9 30-08-2019 00:40:00 20.3 C 79 % 16.54 C
10 30-08-2019 00:45:00 20.2 C 79 % 16.44 C
11 30-08-2019 00:50:00 20.1 C 80 % 16.54 C
12 30-08-2019 00:55:00 20 C 80 % 16.44 C
13 30-08-2019 01:00:00 19.9 C 80 % 16.35 C
14 30-08-2019 01:05:00 19.8 C 81 % 16.45 C
15 30-08-2019 01:10:00 19.6 C 81 % 16.25 C
16 30-08-2019 01:15:00 19.4 C 82 % 16.25 C
17 30-08-2019 01:20:00 19.3 C 83 % 16.34 C
18 30-08-2019 01:25:00 19.2 C 83 % 16.24 C
19 30-08-2019 01:30:00 19.1 C 83 % 16.15 C
20 30-08-2019 01:35:00 18.9 C 84 % 16.14 C
21 30-08-2019 01:40:00 18.8 C 84 % 16.04 C
22 30-08-2019 01:45:00 18.8 C 84 % 16.04 C
23 30-08-2019 01:50:00 18.7 C 85 % 16.13 C
24 30-08-2019 01:55:00 18.7 C 85 % 16.13 C
25 30-08-2019 02:00:00 18.6 C 85 % 16.03 C
Sensor: Nr:Datum:Temp:Feuchte:Taupunkt:
Aussen-T/F 26 30-08-2019 02:05:00 18.4 C 85 % 15.83 C
27 30-08-2019 02:10:00 18.4 C 85 % 15.83 C
28 30-08-2019 02:15:00 18.3 C 86 % 15.92 C
29 30-08-2019 02:20:00 18.3 C 86 % 15.92 C
30 30-08-2019 02:25:00 18.2 C 86 % 15.82 C
31 30-08-2019 02:30:00 18.2 C 86 % 15.82 C
32 30-08-2019 02:35:00 18.1 C 86 % 15.72 C
33 30-08-2019 02:40:00 18.1 C 87 % 15.9 C
34 30-08-2019 02:45:00 18 C 87 % 15.8 C
35 30-08-2019 02:50:00 17.9 C 87 % 15.71 C
36 30-08-2019 02:55:00 17.9 C 87 % 15.71 C
37 30-08-2019 03:00:00 17.8 C 87 % 15.61 C
38 30-08-2019 03:05:00 17.7 C 88 % 15.69 C
39 30-08-2019 03:10:00 17.7 C 88 % 15.69 C
40 30-08-2019 03:15:00 17.6 C 88 % 15.59 C
41 30-08-2019 03:20:00 17.6 C 88 % 15.59 C
42 30-08-2019 03:25:00 17.5 C 88 % 15.49 C
43 30-08-2019 03:30:00 17.4 C 89 % 15.57 C
44 30-08-2019 03:35:00 17.4 C 89 % 15.57 C
45 30-08-2019 03:40:00 17.3 C 89 % 15.47 C
46 30-08-2019 03:45:00 17.3 C 89 % 15.47 C
47 30-08-2019 03:50:00 17.3 C 89 % 15.47 C
48 30-08-2019 03:55:00 17.2 C 89 % 15.37 C
49 30-08-2019 04:00:00 17.2 C 89 % 15.37 C
50 30-08-2019 04:05:00 17.1 C 89 % 15.27 C
Sensor: Nr:Datum:Temp:Feuchte:Taupunkt:
Aussen-T/F 51 30-08-2019 04:10:00 17 C 90 % 15.35 C
52 30-08-2019 04:15:00 16.9 C 89 % 15.08 C
53 30-08-2019 04:20:00 16.8 C 90 % 15.15 C
54 30-08-2019 04:25:00 16.7 C 90 % 15.05 C
55 30-08-2019 04:30:00 16.6 C 90 % 14.95 C
56 30-08-2019 04:35:00 16.5 C 90 % 14.85 C
57 30-08-2019 04:40:00 16.4 C 91 % 14.93 C
58 30-08-2019 04:45:00 16.3 C 91 % 14.83 C
59 30-08-2019 04:50:00 16.2 C 91 % 14.73 C
60 30-08-2019 04:55:00 16.2 C 91 % 14.73 C
61 30-08-2019 05:00:00 16.1 C 91 % 14.63 C
62 30-08-2019 05:05:00 16 C 92 % 14.7 C
63 30-08-2019 05:10:00 15.9 C 92 % 14.6 C
64 30-08-2019 05:15:00 15.8 C 92 % 14.5 C
65 30-08-2019 05:20:00 15.8 C 92 % 14.5 C
66 30-08-2019 05:25:00 15.7 C 92 % 14.4 C
67 30-08-2019 05:30:00 15.8 C 93 % 14.67 C
68 30-08-2019 05:35:00 15.9 C 93 % 14.77 C
69 30-08-2019 05:40:00 16.1 C 94 % 15.13 C
70 30-08-2019 05:45:00 16.1 C 94 % 15.13 C
71 30-08-2019 05:50:00 16.2 C 94 % 15.23 C
72 30-08-2019 05:55:00 16.3 C 94 % 15.33 C
73 30-08-2019 06:00:00 16.3 C 94 % 15.33 C
74 30-08-2019 06:05:00 16.3 C 94 % 15.33 C
75 30-08-2019 06:10:00 16.3 C 94 % 15.33 C
Sensor: Nr:Datum:Temp:Feuchte:Taupunkt:
Aussen-T/F 76 30-08-2019 06:15:00 16.2 C 93 % 15.07 C
77 30-08-2019 06:20:00 16.1 C 93 % 14.97 C
78 30-08-2019 06:25:00 16 C 93 % 14.87 C
79 30-08-2019 06:30:00 15.9 C 93 % 14.77 C
80 30-08-2019 06:35:00 15.7 C 93 % 14.57 C
81 30-08-2019 06:40:00 15.7 C 93 % 14.57 C
82 30-08-2019 06:45:00 15.6 C 93 % 14.47 C
83 30-08-2019 06:50:00 15.5 C 93 % 14.37 C
84 30-08-2019 06:55:00 15.4 C 93 % 14.27 C
85 30-08-2019 07:00:00 15.3 C 93 % 14.18 C
86 30-08-2019 07:05:00 15.3 C 93 % 14.18 C
87 30-08-2019 07:10:00 15.3 C 93 % 14.18 C
88 30-08-2019 07:15:00 15.3 C 93 % 14.18 C
89 30-08-2019 07:20:00 15.4 C 94 % 14.44 C
90 30-08-2019 07:25:00 15.4 C 94 % 14.44 C
91 30-08-2019 07:30:00 15.4 C 94 % 14.44 C
92 30-08-2019 07:35:00 15.4 C 94 % 14.44 C
93 30-08-2019 07:40:00 15.5 C 94 % 14.54 C
94 30-08-2019 07:45:00 15.5 C 94 % 14.54 C
95 30-08-2019 07:50:00 15.6 C 94 % 14.64 C
96 30-08-2019 07:55:00 15.6 C 94 % 14.64 C
97 30-08-2019 08:00:00 15.7 C 94 % 14.74 C
98 30-08-2019 08:05:00 15.7 C 94 % 14.74 C
99 30-08-2019 08:10:00 15.8 C 94 % 14.84 C
100 30-08-2019 08:15:00 15.8 C 94 % 14.84 C
Sensor: Nr:Datum:Temp:Feuchte:Taupunkt:
Aussen-T/F 101 30-08-2019 08:20:00 15.9 C 94 % 14.94 C
102 30-08-2019 08:25:00 15.9 C 94 % 14.94 C
103 30-08-2019 08:30:00 16.1 C 95 % 15.3 C
104 30-08-2019 08:35:00 16.2 C 95 % 15.4 C
105 30-08-2019 08:40:00 16.3 C 95 % 15.5 C
106 30-08-2019 08:45:00 16.4 C 95 % 15.6 C
107 30-08-2019 08:50:00 16.6 C 95 % 15.8 C
108 30-08-2019 08:55:00 16.7 C 94 % 15.73 C
109 30-08-2019 09:00:00 16.9 C 94 % 15.93 C
110 30-08-2019 09:05:00 17.1 C 93 % 15.96 C
111 30-08-2019 09:10:00 17.3 C 91 % 15.82 C
112 30-08-2019 09:15:00 17.6 C 91 % 16.11 C
113 30-08-2019 09:20:00 17.8 C 90 % 16.14 C
114 30-08-2019 09:25:00 17.9 C 89 % 16.06 C
115 30-08-2019 09:30:00 18.1 C 89 % 16.26 C
116 30-08-2019 09:35:00 18.3 C 88 % 16.28 C
117 30-08-2019 09:40:00 18.5 C 86 % 16.11 C
118 30-08-2019 09:45:00 18.6 C 85 % 16.03 C
119 30-08-2019 09:50:00 18.7 C 84 % 15.94 C
120 30-08-2019 09:55:00 18.8 C 84 % 16.04 C
121 30-08-2019 10:00:00 18.9 C 84 % 16.14 C
122 30-08-2019 10:05:00 19.1 C 83 % 16.15 C
123 30-08-2019 10:10:00 19.1 C 83 % 16.15 C
124 30-08-2019 10:15:00 19.2 C 82 % 16.05 C
125 30-08-2019 10:20:00 19.3 C 82 % 16.15 C
Sensor: Nr:Datum:Temp:Feuchte:Taupunkt:
Aussen-T/F 126 30-08-2019 10:25:00 19.3 C 82 % 16.15 C
127 30-08-2019 10:30:00 19.4 C 82 % 16.25 C
128 30-08-2019 10:35:00 19.5 C 81 % 16.15 C
129 30-08-2019 10:40:00 19.6 C 80 % 16.06 C
130 30-08-2019 10:45:00 19.7 C 82 % 16.54 C
131 30-08-2019 10:50:00 19.8 C 80 % 16.25 C
132 30-08-2019 10:55:00 20.1 C 80 % 16.54 C
133 30-08-2019 11:00:00 20.2 C 79 % 16.44 C
134 30-08-2019 11:05:00 20.3 C 78 % 16.34 C
135 30-08-2019 11:10:00 20.4 C 78 % 16.44 C
136 30-08-2019 11:15:00 20.6 C 77 % 16.43 C
137 30-08-2019 11:20:00 20.7 C 76 % 16.32 C
138 30-08-2019 11:25:00 20.8 C 76 % 16.41 C
139 30-08-2019 11:30:00 20.9 C 76 % 16.51 C
140 30-08-2019 11:35:00 21 C 75 % 16.4 C
141 30-08-2019 11:40:00 21.1 C 75 % 16.5 C
142 30-08-2019 11:45:00 21.2 C 74 % 16.38 C
143 30-08-2019 11:50:00 21.3 C 74 % 16.48 C
144 30-08-2019 11:55:00 21.4 C 74 % 16.57 C
145 30-08-2019 12:00:00 21.5 C 74 % 16.67 C
146 30-08-2019 12:05:00 21.7 C 73 % 16.65 C
147 30-08-2019 12:10:00 21.8 C 74 % 16.96 C
148 30-08-2019 12:15:00 21.9 C 73 % 16.84 C
149 30-08-2019 12:20:00 22 C 73 % 16.94 C
150 30-08-2019 12:25:00 22.1 C 73 % 17.03 C
Sensor: Nr:Datum:Temp:Feuchte:Taupunkt:
Aussen-T/F 151 30-08-2019 12:30:00 22.2 C 73 % 17.13 C
152 30-08-2019 12:35:00 22.3 C 73 % 17.23 C
153 30-08-2019 12:40:00 22.4 C 73 % 17.32 C
154 30-08-2019 12:45:00 22.6 C 72 % 17.3 C
155 30-08-2019 12:50:00 22.7 C 71 % 17.17 C
156 30-08-2019 12:55:00 22.8 C 70 % 17.04 C
157 30-08-2019 13:00:00 22.8 C 70 % 17.04 C
158 30-08-2019 13:05:00 22.9 C 72 % 17.58 C
159 30-08-2019 13:10:00 23 C 72 % 17.68 C
160 30-08-2019 13:15:00 23.1 C 71 % 17.55 C
161 30-08-2019 13:20:00 23.2 C 69 % 17.2 C
162 30-08-2019 13:25:00 23.4 C 70 % 17.62 C
163 30-08-2019 13:30:00 23.8 C 67 % 17.3 C
164 30-08-2019 13:35:00 24 C 66 % 17.26 C
165 30-08-2019 13:40:00 24.1 C 66 % 17.35 C
166 30-08-2019 13:45:00 24.2 C 66 % 17.45 C
167 30-08-2019 13:50:00 24.3 C 65 % 17.3 C
168 30-08-2019 13:55:00 24.3 C 65 % 17.3 C
169 30-08-2019 14:00:00 24.4 C 63 % 16.9 C
170 30-08-2019 14:05:00 24.5 C 65 % 17.49 C
171 30-08-2019 14:10:00 24.7 C 64 % 17.43 C
172 30-08-2019 14:15:00 24.8 C 63 % 17.28 C
173 30-08-2019 14:20:00 24.9 C 61 % 16.86 C
174 30-08-2019 14:25:00 25 C 60 % 16.7 C
175 30-08-2019 14:30:00 25.1 C 61 % 17.05 C
Sensor: Nr:Datum:Temp:Feuchte:Taupunkt:
Aussen-T/F 176 30-08-2019 14:35:00 25.2 C 61 % 17.14 C
177 30-08-2019 14:40:00 25.3 C 60 % 16.98 C
178 30-08-2019 14:45:00 25.3 C 59 % 16.71 C
179 30-08-2019 14:50:00 25.4 C 58 % 16.54 C
180 30-08-2019 14:55:00 25.4 C 55 % 15.7 C
181 30-08-2019 15:00:00 25.6 C 56 % 16.17 C
182 30-08-2019 15:05:00 25.7 C 51 % 14.81 C
183 30-08-2019 15:10:00 25.8 C 51 % 14.9 C
184 30-08-2019 15:15:00 25.8 C 52 % 15.2 C
185 30-08-2019 15:20:00 25.9 C 52 % 15.29 C
186 30-08-2019 15:25:00 26.2 C 51 % 15.27 C
187 30-08-2019 15:30:00 26.2 C 53 % 15.87 C
188 30-08-2019 15:35:00 26.3 C 51 % 15.36 C
189 30-08-2019 15:40:00 26.4 C 50 % 15.14 C
190 30-08-2019 15:45:00 26.6 C 50 % 15.32 C
191 30-08-2019 15:50:00 26.7 C 49 % 15.1 C
192 30-08-2019 15:55:00 26.8 C 49 % 15.19 C
193 30-08-2019 16:00:00 26.9 C 49 % 15.28 C
194 30-08-2019 16:05:00 27.1 C 50 % 15.78 C
195 30-08-2019 16:10:00 27.2 C 50 % 15.87 C
196 30-08-2019 16:15:00 27.3 C 47 % 15 C
197 30-08-2019 16:20:00 27.6 C 49 % 15.92 C
198 30-08-2019 16:25:00 27.8 C 48 % 15.78 C
199 30-08-2019 16:30:00 28 C 47 % 15.64 C
200 30-08-2019 16:35:00 28.3 C 44 % 14.88 C
Sensor: Nr:Datum:Temp:Feuchte:Taupunkt:
Aussen-T/F 201 30-08-2019 16:40:00 28.6 C 45 % 15.5 C
202 30-08-2019 16:45:00 28.8 C 40 % 13.86 C
203 30-08-2019 16:50:00 29 C 39 % 13.65 C
204 30-08-2019 16:55:00 29.2 C 40 % 14.21 C
205 30-08-2019 17:00:00 29.4 C 38 % 13.6 C
206 30-08-2019 17:05:00 29.4 C 38 % 13.6 C
207 30-08-2019 17:10:00 29.5 C 37 % 13.28 C
208 30-08-2019 17:15:00 29.5 C 40 % 14.48 C
209 30-08-2019 17:20:00 29.5 C 37 % 13.28 C
210 30-08-2019 17:25:00 29.6 C 41 % 14.95 C
211 30-08-2019 17:30:00 29.6 C 38 % 13.78 C
212 30-08-2019 17:35:00 29.8 C 38 % 13.95 C
213 30-08-2019 17:40:00 29.8 C 37 % 13.54 C
214 30-08-2019 17:45:00 29.9 C 37 % 13.63 C
215 30-08-2019 17:50:00 29.9 C 36 % 13.21 C
216 30-08-2019 17:55:00 30.1 C 37 % 13.81 C
217 30-08-2019 18:00:00 30.2 C 35 % 13.04 C
218 30-08-2019 18:05:00 30.4 C 35 % 13.22 C
219 30-08-2019 18:10:00 30.4 C 37 % 14.07 C
220 30-08-2019 18:15:00 30.1 C 37 % 13.81 C
221 30-08-2019 18:20:00 29.7 C 38 % 13.87 C
222 30-08-2019 18:25:00 29.5 C 39 % 14.09 C
223 30-08-2019 18:30:00 29.3 C 38 % 13.51 C
224 30-08-2019 18:35:00 29.2 C 38 % 13.42 C
225 30-08-2019 18:40:00 29.2 C 37 % 13.02 C
Sensor: Nr:Datum:Temp:Feuchte:Taupunkt:
Aussen-T/F 226 30-08-2019 18:45:00 28.9 C 39 % 13.56 C
227 30-08-2019 18:50:00 28.8 C 39 % 13.47 C
228 30-08-2019 18:55:00 28.8 C 39 % 13.47 C
229 30-08-2019 19:00:00 28.5 C 40 % 13.59 C
230 30-08-2019 19:05:00 28.3 C 39 % 13.02 C
231 30-08-2019 19:10:00 28.2 C 41 % 13.7 C
232 30-08-2019 19:15:00 28 C 43 % 14.26 C
233 30-08-2019 19:20:00 27.8 C 48 % 15.78 C
234 30-08-2019 19:25:00 27.6 C 48 % 15.6 C
235 30-08-2019 19:30:00 27.3 C 50 % 15.97 C
236 30-08-2019 19:35:00 26.9 C 50 % 15.6 C
237 30-08-2019 19:40:00 26.5 C 51 % 15.54 C
238 30-08-2019 19:45:00 26.1 C 51 % 15.17 C
239 30-08-2019 19:50:00 25.7 C 52 % 15.11 C
240 30-08-2019 19:55:00 25.2 C 52 % 14.65 C
241 30-08-2019 20:00:00 24.8 C 52 % 14.28 C
242 30-08-2019 20:05:00 24.4 C 53 % 14.2 C
243 30-08-2019 20:10:00 23.9 C 53 % 13.74 C
244 30-08-2019 20:15:00 23.6 C 54 % 13.75 C
245 30-08-2019 20:20:00 23.2 C 54 % 13.38 C
246 30-08-2019 20:25:00 22.9 C 56 % 13.66 C
247 30-08-2019 20:30:00 22.7 C 56 % 13.47 C
248 30-08-2019 20:35:00 22.4 C 56 % 13.2 C
249 30-08-2019 20:40:00 22.3 C 56 % 13.1 C
250 30-08-2019 20:45:00 22.1 C 57 % 13.19 C
Sensor: Nr:Datum:Temp:Feuchte:Taupunkt:
Aussen-T/F 251 30-08-2019 20:50:00 22 C 60 % 13.88 C
252 30-08-2019 20:55:00 21.7 C 60 % 13.6 C
253 30-08-2019 21:00:00 21.4 C 60 % 13.32 C
254 30-08-2019 21:05:00 21.2 C 60 % 13.13 C
255 30-08-2019 21:10:00 21.1 C 62 % 13.54 C
256 30-08-2019 21:15:00 20.9 C 63 % 13.6 C
257 30-08-2019 21:20:00 20.7 C 64 % 13.65 C
258 30-08-2019 21:25:00 20.5 C 65 % 13.7 C
259 30-08-2019 21:30:00 20.3 C 65 % 13.51 C
260 30-08-2019 21:35:00 20.1 C 67 % 13.78 C
261 30-08-2019 21:40:00 19.9 C 68 % 13.82 C
262 30-08-2019 21:45:00 19.7 C 68 % 13.63 C
263 30-08-2019 21:50:00 19.5 C 69 % 13.66 C
264 30-08-2019 21:55:00 19.3 C 70 % 13.69 C
265 30-08-2019 22:00:00 19.3 C 71 % 13.91 C
266 30-08-2019 22:05:00 19.1 C 72 % 13.94 C
267 30-08-2019 22:10:00 19 C 70 % 13.41 C
268 30-08-2019 22:15:00 18.9 C 71 % 13.53 C
269 30-08-2019 22:20:00 18.8 C 71 % 13.43 C
270 30-08-2019 22:25:00 18.8 C 72 % 13.65 C
271 30-08-2019 22:30:00 18.7 C 73 % 13.76 C
272 30-08-2019 22:35:00 18.6 C 73 % 13.67 C
273 30-08-2019 22:40:00 18.3 C 74 % 13.59 C
274 30-08-2019 22:45:00 18.2 C 74 % 13.49 C
275 30-08-2019 22:50:00 18.1 C 75 % 13.6 C
Sensor: Nr:Datum:Temp:Feuchte:Taupunkt:
Aussen-T/F 276 30-08-2019 22:55:00 17.9 C 75 % 13.41 C
277 30-08-2019 23:00:00 17.8 C 76 % 13.52 C
278 30-08-2019 23:05:00 17.8 C 76 % 13.52 C
279 30-08-2019 23:10:00 17.7 C 76 % 13.42 C
280 30-08-2019 23:15:00 17.6 C 77 % 13.52 C
281 30-08-2019 23:20:00 17.4 C 76 % 13.13 C
282 30-08-2019 23:25:00 17.3 C 77 % 13.23 C
283 30-08-2019 23:30:00 17.3 C 77 % 13.23 C
284 30-08-2019 23:35:00 17.3 C 78 % 13.43 C
285 30-08-2019 23:40:00 17.2 C 78 % 13.33 C
286 30-08-2019 23:45:00 17.2 C 78 % 13.33 C
287 30-08-2019 23:50:00 17.1 C 79 % 13.43 C
288 30-08-2019 23:55:00 16.9 C 79 % 13.24 C
289 31-08-2019 00:00:00 16.9 C 80 % 13.43 C
290 31-08-2019 00:05:00 16.9 C 80 % 13.43 C
291 31-08-2019 00:10:00 16.9 C 80 % 13.43 C
292 31-08-2019 00:15:00 16.9 C 80 % 13.43 C
293 31-08-2019 00:20:00 16.8 C 80 % 13.33 C
294 31-08-2019 00:25:00 16.7 C 80 % 13.23 C
295 31-08-2019 00:30:00 16.7 C 81 % 13.43 C
296 31-08-2019 00:35:00 16.6 C 82 % 13.52 C
297 31-08-2019 00:40:00 16.5 C 82 % 13.42 C
298 31-08-2019 00:45:00 16.4 C 82 % 13.32 C
299 31-08-2019 00:50:00 16.3 C 82 % 13.22 C
300 31-08-2019 00:55:00 16.2 C 83 % 13.31 C
Sensor: Nr:Datum:Temp:Feuchte:Taupunkt:
Aussen-T/F 301 31-08-2019 01:00:00 16.2 C 83 % 13.31 C
302 31-08-2019 01:05:00 16.1 C 83 % 13.21 C
303 31-08-2019 01:10:00 16 C 84 % 13.3 C
304 31-08-2019 01:15:00 15.9 C 84 % 13.2 C
305 31-08-2019 01:20:00 15.8 C 84 % 13.1 C
306 31-08-2019 01:25:00 15.8 C 84 % 13.1 C
307 31-08-2019 01:30:00 15.8 C 84 % 13.1 C
308 31-08-2019 01:35:00 15.7 C 84 % 13.01 C
309 31-08-2019 01:40:00 15.7 C 85 % 13.19 C
310 31-08-2019 01:45:00 15.7 C 85 % 13.19 C
311 31-08-2019 01:50:00 15.6 C 85 % 13.09 C
312 31-08-2019 01:55:00 15.6 C 85 % 13.09 C
313 31-08-2019 02:00:00 15.5 C 85 % 12.99 C
314 31-08-2019 02:05:00 15.4 C 85 % 12.89 C
315 31-08-2019 02:10:00 15.3 C 86 % 12.97 C
316 31-08-2019 02:15:00 15.3 C 86 % 12.97 C
317 31-08-2019 02:20:00 15.3 C 86 % 12.97 C
318 31-08-2019 02:25:00 15.2 C 86 % 12.88 C
319 31-08-2019 02:30:00 15.2 C 86 % 12.88 C
320 31-08-2019 02:35:00 15.2 C 87 % 13.05 C
321 31-08-2019 02:40:00 15.1 C 87 % 12.95 C
322 31-08-2019 02:45:00 15.1 C 87 % 12.95 C
323 31-08-2019 02:50:00 15 C 87 % 12.86 C
324 31-08-2019 02:55:00 15 C 87 % 12.86 C
325 31-08-2019 03:00:00 15 C 88 % 13.03 C
Sensor: Nr:Datum:Temp:Feuchte:Taupunkt:
Aussen-T/F 326 31-08-2019 03:05:00 14.9 C 88 % 12.93 C
327 31-08-2019 03:10:00 14.9 C 88 % 12.93 C
328 31-08-2019 03:15:00 14.8 C 88 % 12.83 C
329 31-08-2019 03:20:00 14.8 C 88 % 12.83 C
330 31-08-2019 03:25:00 14.7 C 88 % 12.73 C
331 31-08-2019 03:30:00 14.7 C 89 % 12.91 C
332 31-08-2019 03:35:00 14.7 C 89 % 12.91 C
333 31-08-2019 03:40:00 14.7 C 89 % 12.91 C
334 31-08-2019 03:45:00 14.6 C 89 % 12.81 C
335 31-08-2019 03:50:00 14.6 C 89 % 12.81 C
336 31-08-2019 03:55:00 14.6 C 89 % 12.81 C
337 31-08-2019 04:00:00 14.5 C 89 % 12.71 C
338 31-08-2019 04:05:00 14.4 C 90 % 12.78 C
339 31-08-2019 04:10:00 14.4 C 90 % 12.78 C
340 31-08-2019 04:15:00 14.4 C 90 % 12.78 C
341 31-08-2019 04:20:00 14.4 C 90 % 12.78 C
342 31-08-2019 04:25:00 14.3 C 90 % 12.68 C
343 31-08-2019 04:30:00 14.3 C 90 % 12.68 C
344 31-08-2019 04:35:00 14.3 C 90 % 12.68 C
345 31-08-2019 04:40:00 14.2 C 90 % 12.58 C
346 31-08-2019 04:45:00 14.2 C 91 % 12.75 C
347 31-08-2019 04:50:00 14.2 C 91 % 12.75 C
348 31-08-2019 04:55:00 14.2 C 91 % 12.75 C
349 31-08-2019 05:00:00 14.2 C 91 % 12.75 C
350 31-08-2019 05:05:00 14.1 C 91 % 12.65 C
Sensor: Nr:Datum:Temp:Feuchte:Taupunkt:
Aussen-T/F 351 31-08-2019 05:10:00 14.1 C 91 % 12.65 C
352 31-08-2019 05:15:00 14.1 C 91 % 12.65 C
353 31-08-2019 05:20:00 14.1 C 91 % 12.65 C
354 31-08-2019 05:25:00 14.1 C 92 % 12.82 C
355 31-08-2019 05:30:00 14.1 C 92 % 12.82 C
356 31-08-2019 05:35:00 14.2 C 92 % 12.92 C
357 31-08-2019 05:40:00 14.2 C 92 % 12.92 C
358 31-08-2019 05:45:00 14.2 C 92 % 12.92 C
359 31-08-2019 05:50:00 14.2 C 92 % 12.92 C
360 31-08-2019 05:55:00 14.2 C 92 % 12.92 C
361 31-08-2019 06:00:00 14.3 C 92 % 13.02 C
362 31-08-2019 06:05:00 14.3 C 92 % 13.02 C
363 31-08-2019 06:10:00 14.3 C 92 % 13.02 C
364 31-08-2019 06:15:00 14.2 C 92 % 12.92 C
365 31-08-2019 06:20:00 14.2 C 92 % 12.92 C
366 31-08-2019 06:25:00 14.1 C 92 % 12.82 C
367 31-08-2019 06:30:00 14.1 C 92 % 12.82 C
368 31-08-2019 06:35:00 14 C 92 % 12.72 C
369 31-08-2019 06:40:00 14 C 92 % 12.72 C
370 31-08-2019 06:45:00 13.9 C 92 % 12.62 C
371 31-08-2019 06:50:00 13.9 C 92 % 12.62 C
372 31-08-2019 06:55:00 13.9 C 92 % 12.62 C
373 31-08-2019 07:00:00 13.9 C 92 % 12.62 C
374 31-08-2019 07:05:00 13.9 C 92 % 12.62 C
375 31-08-2019 07:10:00 13.9 C 92 % 12.62 C
Sensor: Nr:Datum:Temp:Feuchte:Taupunkt:
Aussen-T/F 376 31-08-2019 07:15:00 14 C 93 % 12.89 C
377 31-08-2019 07:20:00 14 C 93 % 12.89 C
378 31-08-2019 07:25:00 14.1 C 93 % 12.99 C
379 31-08-2019 07:30:00 14.1 C 93 % 12.99 C
380 31-08-2019 07:35:00 14.1 C 93 % 12.99 C
381 31-08-2019 07:40:00 14.2 C 93 % 13.08 C
382 31-08-2019 07:45:00 14.3 C 93 % 13.18 C
383 31-08-2019 07:50:00 14.4 C 93 % 13.28 C
384 31-08-2019 07:55:00 14.4 C 92 % 13.12 C
385 31-08-2019 08:00:00 14.5 C 92 % 13.22 C
386 31-08-2019 08:05:00 14.5 C 92 % 13.22 C
387 31-08-2019 08:10:00 14.6 C 92 % 13.32 C
388 31-08-2019 08:15:00 14.6 C 92 % 13.32 C
389 31-08-2019 08:20:00 14.7 C 93 % 13.58 C
390 31-08-2019 08:25:00 14.7 C 93 % 13.58 C
391 31-08-2019 08:30:00 14.8 C 93 % 13.68 C
392 31-08-2019 08:35:00 14.8 C 93 % 13.68 C
393 31-08-2019 08:40:00 14.9 C 93 % 13.78 C
394 31-08-2019 08:45:00 14.9 C 93 % 13.78 C
395 31-08-2019 08:50:00 15.1 C 93 % 13.98 C
396 31-08-2019 08:55:00 15.1 C 93 % 13.98 C
397 31-08-2019 09:00:00 15.2 C 93 % 14.08 C
398 31-08-2019 09:05:00 15.3 C 93 % 14.18 C
399 31-08-2019 09:10:00 15.4 C 93 % 14.27 C
400 31-08-2019 09:15:00 15.6 C 93 % 14.47 C
Sensor: Nr:Datum:Temp:Feuchte:Taupunkt:
Aussen-T/F 401 31-08-2019 09:20:00 15.7 C 92 % 14.4 C
402 31-08-2019 09:25:00 15.8 C 92 % 14.5 C
403 31-08-2019 09:30:00 15.9 C 92 % 14.6 C
404 31-08-2019 09:35:00 16.1 C 92 % 14.8 C
405 31-08-2019 09:40:00 16.2 C 92 % 14.9 C
406 31-08-2019 09:45:00 16.3 C 92 % 15 C
407 31-08-2019 09:50:00 16.5 C 92 % 15.2 C
408 31-08-2019 09:55:00 16.7 C 91 % 15.22 C
409 31-08-2019 10:00:00 16.8 C 92 % 15.49 C
410 31-08-2019 10:05:00 16.9 C 91 % 15.42 C
411 31-08-2019 10:10:00 17.1 C 91 % 15.62 C
412 31-08-2019 10:15:00 17.2 C 90 % 15.55 C
413 31-08-2019 10:20:00 17.4 C 90 % 15.74 C
414 31-08-2019 10:25:00 17.6 C 89 % 15.77 C
415 31-08-2019 10:30:00 17.8 C 89 % 15.96 C
416 31-08-2019 10:35:00 18.1 C 88 % 16.08 C
417 31-08-2019 10:40:00 18.3 C 88 % 16.28 C
418 31-08-2019 10:45:00 18.6 C 87 % 16.39 C
419 31-08-2019 10:50:00 18.8 C 87 % 16.59 C
420 31-08-2019 10:55:00 19 C 86 % 16.6 C
421 31-08-2019 11:00:00 19.3 C 85 % 16.72 C
422 31-08-2019 11:05:00 19.6 C 84 % 16.82 C
423 31-08-2019 11:10:00 19.7 C 82 % 16.54 C
424 31-08-2019 11:15:00 20 C 83 % 17.02 C
425 31-08-2019 11:20:00 20.3 C 83 % 17.32 C
Sensor: Nr:Datum:Temp:Feuchte:Taupunkt:
Aussen-T/F 426 31-08-2019 11:25:00 20.5 C 81 % 17.13 C
427 31-08-2019 11:30:00 20.8 C 82 % 17.61 C
428 31-08-2019 11:35:00 21 C 80 % 17.42 C
429 31-08-2019 11:40:00 21.2 C 79 % 17.41 C
430 31-08-2019 11:45:00 21.4 C 79 % 17.61 C
431 31-08-2019 11:50:00 21.6 C 79 % 17.8 C
432 31-08-2019 11:55:00 21.8 C 78 % 17.79 C
433 31-08-2019 12:00:00 22.1 C 77 % 17.88 C
434 31-08-2019 12:05:00 22.3 C 76 % 17.86 C
435 31-08-2019 12:10:00 22.6 C 75 % 17.94 C
436 31-08-2019 12:15:00 22.8 C 75 % 18.14 C
437 31-08-2019 12:20:00 23.1 C 73 % 17.99 C
438 31-08-2019 12:25:00 23.4 C 72 % 18.06 C
439 31-08-2019 12:30:00 23.8 C 74 % 18.89 C
440 31-08-2019 12:35:00 24.1 C 73 % 18.96 C
441 31-08-2019 12:40:00 24.3 C 74 % 19.37 C
442 31-08-2019 12:45:00 24.5 C 71 % 18.89 C
443 31-08-2019 12:50:00 24.9 C 71 % 19.28 C
444 31-08-2019 12:55:00 25.6 C 66 % 18.77 C
445 31-08-2019 13:00:00 26.3 C 62 % 18.44 C
446 31-08-2019 13:05:00 26.9 C 62 % 19 C
447 31-08-2019 13:10:00 27.4 C 58 % 18.4 C
448 31-08-2019 13:15:00 27.9 C 55 % 18.02 C
449 31-08-2019 13:20:00 28.2 C 60 % 19.69 C
450 31-08-2019 13:25:00 28.4 C 54 % 18.19 C
Sensor: Nr:Datum:Temp:Feuchte:Taupunkt:
Aussen-T/F 451 31-08-2019 13:30:00 28.8 C 53 % 18.26 C
452 31-08-2019 13:35:00 29.2 C 52 % 18.33 C
453 31-08-2019 13:40:00 29.5 C 49 % 17.66 C
454 31-08-2019 13:45:00 29.7 C 49 % 17.84 C
455 31-08-2019 13:50:00 29.8 C 50 % 18.25 C
456 31-08-2019 13:55:00 29.8 C 51 % 18.57 C
457 31-08-2019 14:00:00 29.7 C 49 % 17.84 C
458 31-08-2019 14:05:00 29.8 C 50 % 18.25 C
459 31-08-2019 14:10:00 29.9 C 48 % 17.7 C
460 31-08-2019 14:15:00 30 C 48 % 17.79 C
461 31-08-2019 14:20:00 30.1 C 47 % 17.54 C
462 31-08-2019 14:25:00 30.3 C 47 % 17.73 C
463 31-08-2019 14:30:00 30.4 C 49 % 18.48 C
464 31-08-2019 14:35:00 30.6 C 47 % 18 C
465 31-08-2019 14:40:00 30.7 C 47 % 18.09 C
466 31-08-2019 14:45:00 30.8 C 47 % 18.18 C
467 31-08-2019 14:50:00 31 C 44 % 17.31 C
468 31-08-2019 14:55:00 31.1 C 45 % 17.76 C
469 31-08-2019 15:00:00 31 C 44 % 17.31 C
470 31-08-2019 15:05:00 31.1 C 45 % 17.76 C
471 31-08-2019 15:10:00 31.1 C 44 % 17.4 C
472 31-08-2019 15:15:00 31.1 C 44 % 17.4 C
473 31-08-2019 15:20:00 31.2 C 43 % 17.13 C
474 31-08-2019 15:25:00 31.3 C 42 % 16.85 C
475 31-08-2019 15:30:00 31.4 C 43 % 17.31 C
Sensor: Nr:Datum:Temp:Feuchte:Taupunkt:
Aussen-T/F 476 31-08-2019 15:35:00 31.6 C 44 % 17.85 C
477 31-08-2019 15:40:00 31.7 C 43 % 17.58 C
478 31-08-2019 15:45:00 31.8 C 43 % 17.67 C
479 31-08-2019 15:50:00 31.9 C 44 % 18.12 C
480 31-08-2019 15:55:00 32 C 41 % 17.09 C
481 31-08-2019 16:00:00 32 C 41 % 17.09 C
482 31-08-2019 16:05:00 32 C 44 % 18.21 C
483 31-08-2019 16:10:00 31.9 C 44 % 18.12 C
484 31-08-2019 16:15:00 32.1 C 46 % 19.02 C
485 31-08-2019 16:20:00 32.1 C 43 % 17.94 C
486 31-08-2019 16:25:00 32.3 C 43 % 18.12 C
487 31-08-2019 16:30:00 32.7 C 41 % 17.72 C
488 31-08-2019 16:35:00 32.8 C 41 % 17.81 C
489 31-08-2019 16:40:00 32.8 C 41 % 17.81 C
490 31-08-2019 16:45:00 32.8 C 41 % 17.81 C
491 31-08-2019 16:50:00 33 C 42 % 18.37 C
492 31-08-2019 16:55:00 33.3 C 41 % 18.25 C
493 31-08-2019 17:00:00 33.4 C 40 % 17.95 C
494 31-08-2019 17:05:00 33.5 C 41 % 18.43 C
495 31-08-2019 17:10:00 33.7 C 40 % 18.22 C
496 31-08-2019 17:15:00 34 C 41 % 18.88 C
497 31-08-2019 17:20:00 34.3 C 38 % 17.93 C
498 31-08-2019 17:25:00 34.2 C 41 % 19.06 C
499 31-08-2019 17:30:00 34.2 C 39 % 18.26 C
500 31-08-2019 17:35:00 34.1 C 39 % 18.17 C
Sensor: Nr:Datum:Temp:Feuchte:Taupunkt:
Aussen-T/F 501 31-08-2019 17:40:00 33.8 C 40 % 18.31 C
502 31-08-2019 17:45:00 33.7 C 40 % 18.22 C
503 31-08-2019 17:50:00 33.8 C 41 % 18.7 C
504 31-08-2019 17:55:00 34 C 38 % 17.67 C
505 31-08-2019 18:00:00 34 C 38 % 17.67 C
506 31-08-2019 18:05:00 34.1 C 39 % 18.17 C
507 31-08-2019 18:10:00 34 C 42 % 19.27 C
508 31-08-2019 18:15:00 34 C 38 % 17.67 C
509 31-08-2019 18:20:00 33.9 C 39 % 17.99 C
510 31-08-2019 18:25:00 33.6 C 39 % 17.73 C
511 31-08-2019 18:30:00 33.5 C 39 % 17.64 C
512 31-08-2019 18:35:00 33.4 C 40 % 17.95 C
513 31-08-2019 18:40:00 33.6 C 39 % 17.73 C
514 31-08-2019 18:45:00 33.6 C 40 % 18.13 C
515 31-08-2019 18:50:00 33.6 C 45 % 20.02 C
516 31-08-2019 18:55:00 33.3 C 42 % 18.64 C
517 31-08-2019 19:00:00 33.1 C 41 % 18.08 C
518 31-08-2019 19:05:00 33.1 C 46 % 19.92 C
519 31-08-2019 19:10:00 32.9 C 45 % 19.39 C
520 31-08-2019 19:15:00 32.5 C 46 % 19.38 C
521 31-08-2019 19:20:00 32.1 C 48 % 19.7 C
522 31-08-2019 19:25:00 31.7 C 48 % 19.34 C
523 31-08-2019 19:30:00 31.2 C 49 % 19.21 C
524 31-08-2019 19:35:00 30.6 C 50 % 18.99 C
525 31-08-2019 19:40:00 30 C 52 % 19.07 C
Sensor: Nr:Datum:Temp:Feuchte:Taupunkt:
Aussen-T/F 526 31-08-2019 19:45:00 29.4 C 53 % 18.82 C
527 31-08-2019 19:50:00 28.8 C 53 % 18.26 C
528 31-08-2019 19:55:00 28.2 C 55 % 18.3 C
529 31-08-2019 20:00:00 27.7 C 57 % 18.41 C
530 31-08-2019 20:05:00 27.2 C 57 % 17.94 C
531 31-08-2019 20:10:00 26.8 C 58 % 17.84 C
532 31-08-2019 20:15:00 26.4 C 59 % 17.74 C
533 31-08-2019 20:20:00 26.1 C 59 % 17.46 C
534 31-08-2019 20:25:00 25.8 C 60 % 17.45 C
535 31-08-2019 20:30:00 25.6 C 60 % 17.26 C
536 31-08-2019 20:35:00 25.4 C 60 % 17.07 C
537 31-08-2019 20:40:00 25.2 C 62 % 17.4 C
538 31-08-2019 20:45:00 25 C 62 % 17.21 C
539 31-08-2019 20:50:00 24.8 C 63 % 17.28 C
540 31-08-2019 20:55:00 24.7 C 63 % 17.18 C
541 31-08-2019 21:00:00 24.6 C 63 % 17.09 C
542 31-08-2019 21:05:00 24.5 C 64 % 17.24 C
543 31-08-2019 21:10:00 24.4 C 64 % 17.15 C
544 31-08-2019 21:15:00 24.4 C 64 % 17.15 C
545 31-08-2019 21:20:00 24.4 C 63 % 16.9 C
546 31-08-2019 21:25:00 24.5 C 64 % 17.24 C
547 31-08-2019 21:30:00 24.6 C 63 % 17.09 C
548 31-08-2019 21:35:00 24.6 C 64 % 17.34 C
549 31-08-2019 21:40:00 24.6 C 66 % 17.83 C
550 31-08-2019 21:45:00 25.2 C 58 % 16.35 C
Sensor: Nr:Datum:Temp:Feuchte:Taupunkt:
Aussen-T/F 551 31-08-2019 21:50:00 26.2 C 56 % 16.73 C
552 31-08-2019 21:55:00 26.5 C 55 % 16.72 C
553 31-08-2019 22:00:00 26.6 C 55 % 16.82 C
554 31-08-2019 22:05:00 26.4 C 56 % 16.92 C
555 31-08-2019 22:10:00 26.2 C 62 % 18.34 C
556 31-08-2019 22:15:00 25.9 C 64 % 18.57 C
557 31-08-2019 22:20:00 25.5 C 68 % 19.16 C
558 31-08-2019 22:25:00 25.1 C 70 % 19.24 C
559 31-08-2019 22:30:00 24.5 C 72 % 19.12 C
560 31-08-2019 22:35:00 23.9 C 75 % 19.2 C
561 31-08-2019 22:40:00 23.4 C 78 % 19.34 C
562 31-08-2019 22:45:00 22.9 C 80 % 19.26 C
563 31-08-2019 22:50:00 22.5 C 82 % 19.27 C
564 31-08-2019 22:55:00 22.1 C 84 % 19.27 C
565 31-08-2019 23:00:00 21.8 C 85 % 19.16 C
566 31-08-2019 23:05:00 21.6 C 86 % 19.16 C
567 31-08-2019 23:10:00 21.3 C 86 % 18.86 C
568 31-08-2019 23:15:00 21.1 C 86 % 18.67 C
569 31-08-2019 23:20:00 20.8 C 87 % 18.56 C
570 31-08-2019 23:25:00 20.6 C 87 % 18.36 C
571 31-08-2019 23:30:00 20.4 C 88 % 18.34 C
572 31-08-2019 23:35:00 20.3 C 88 % 18.25 C
573 31-08-2019 23:40:00 20.2 C 89 % 18.33 C
574 31-08-2019 23:45:00 20.2 C 90 % 18.51 C
575 31-08-2019 23:50:00 20.1 C 89 % 18.23 C
Sensor: Nr:Datum:Temp:Feuchte:Taupunkt:
Aussen-T/F 576 31-08-2019 23:55:00 19.9 C 90 % 18.21 C

Legende:
   Min
   Max


Maximal/Minimal-Werte vom 30.08.2019 - 31.08.2019

Sensor Min Max Avg
Temp
(Aussen-T/F)
13.9 °C
31-08-2019  06:45:00
34.3 °C
31-08-2019  17:20:00
21.53 °C
Feuchte
(Aussen-T/F)
35 %
30-08-2019  18:00:00
95 %
30-08-2019  08:30:00
72.28 %
Taupunkt
(Aussen-T/F)
12.58 C
31-08-2019  04:40:00
20.02 C
31-08-2019  18:50:00
15.55 C

Die Daten stammen von einer Davis Vantage Pro 2 Wetter-Station und werden unter Linux mit der Software wview2wettercgi und aufbereitet. Alle Angaben erfolgen ohne Gewähr für ihre Vollständigkeit oder Richtigkeit.
Kontakt: Rainer Krienke krienke@uni-koblenz.de . Meine Webseiten an der Uni Koblenz oder privat.
Version: $Revision: 0.78 $